Time;durP1;ratioP1;P1;durP2;ratioP2;P2;SDS_P1;SDS_P2;PMS_P1;PMS_P2;Temp;Humidity;BMP_temperature;BMP_pressure;BME280_temperature;BME280_humidity;BME280_pressure;Samples;Min_cycle;Max_cycle;Signal;HPM_P1;HPM_P2
2023/09/28 00:00:36;;;;;;;1.37;0.65;;;17.30;99.90;;;;;;4431925;32;20146;-62
2023/09/28 00:03:04;;;;;;;5.10;2.17;;;17.30;99.90;;;;;;4431518;32;20053;-62
2023/09/28 00:05:29;;;;;;;20.48;0.77;;;17.30;99.90;;;;;;4417820;32;20470;-62
2023/09/28 00:07:55;;;;;;;3.60;0.55;;;17.30;99.90;;;;;;4432682;32;20089;-61
2023/09/28 00:10:21;;;;;;;1.25;0.70;;;17.30;99.90;;;;;;4430704;32;20076;-61
2023/09/28 00:12:48;;;;;;;0.73;0.62;;;17.30;99.90;;;;;;4432770;32;20532;-59
2023/09/28 00:15:14;;;;;;;0.68;0.68;;;17.30;99.90;;;;;;4430843;32;21175;-63
2023/09/28 00:17:40;;;;;;;1.65;1.23;;;17.20;99.90;;;;;;4431492;32;20104;-63
2023/09/28 00:20:12;;;;;;;0.85;0.80;;;17.10;99.90;;;;;;4433026;32;20457;-62
2023/09/28 00:22:38;;;;;;;4.10;1.23;;;16.90;99.90;;;;;;4432075;32;20077;-63
2023/09/28 00:25:09;;;;;;;0.68;0.68;;;16.90;99.90;;;;;;4429950;32;20084;-59
2023/09/28 00:27:34;;;;;;;1.08;0.52;;;16.90;99.90;;;;;;4432052;32;20424;-62
2023/09/28 00:30:00;;;;;;;1.15;0.98;;;16.90;99.90;;;;;;4432362;32;20100;-62
2023/09/28 00:32:26;;;;;;;0.60;0.60;;;16.80;99.90;;;;;;4430548;32;20533;-63
2023/09/28 00:34:51;;;;;;;26.42;1.30;;;16.80;99.90;;;;;;4433034;32;20417;-62
2023/09/28 00:37:16;;;;;;;6.53;1.50;;;16.90;99.90;;;;;;4430146;32;21532;-62
2023/09/28 00:39:42;;;;;;;0.60;0.60;;;16.90;99.90;;;;;;4434719;32;20088;-63
2023/09/28 00:42:07;;;;;;;0.70;0.70;;;17.00;99.90;;;;;;4432845;32;20078;-61
2023/09/28 00:44:33;;;;;;;2.55;1.05;;;17.00;99.90;;;;;;4431622;32;20065;-63
2023/09/28 00:47:01;;;;;;;0.82;0.80;;;16.90;99.90;;;;;;4430281;32;20100;-60
2023/09/28 00:49:27;;;;;;;1.60;0.73;;;16.80;99.90;;;;;;4433693;32;20148;-59
2023/09/28 00:51:53;;;;;;;6.07;2.00;;;16.90;99.90;;;;;;4431029;32;20081;-63
2023/09/28 00:54:21;;;;;;;0.80;0.80;;;16.90;99.90;;;;;;4432048;32;21435;-62
2023/09/28 00:56:48;;;;;;;1.37;1.05;;;16.80;99.90;;;;;;4429454;32;20170;-62
2023/09/28 00:59:14;;;;;;;3.30;1.85;;;16.80;99.90;;;;;;4431456;32;20296;-60
2023/09/28 01:01:40;;;;;;;1.95;1.40;;;16.80;99.90;;;;;;4428080;32;20172;-61
2023/09/28 01:04:06;;;;;;;0.82;0.80;;;16.70;99.90;;;;;;4429134;32;20135;-62
2023/09/28 01:06:35;;;;;;;0.70;0.70;;;16.70;99.90;;;;;;4430055;32;20081;-61
2023/09/28 01:09:00;;;;;;;0.50;0.50;;;16.60;99.90;;;;;;4418510;32;20573;-60
2023/09/28 01:11:28;;;;;;;0.57;0.57;;;16.60;99.90;;;;;;4429552;32;20110;-60
2023/09/28 01:13:53;;;;;;;0.62;0.60;;;16.70;99.90;;;;;;4427933;32;20100;-60
2023/09/28 01:16:19;;;;;;;2.08;1.33;;;16.80;99.90;;;;;;4429746;32;20524;-60
2023/09/28 01:18:45;;;;;;;9.10;0.88;;;16.80;99.90;;;;;;4432427;32;20084;-60
2023/09/28 01:21:11;;;;;;;0.55;0.55;;;16.70;99.90;;;;;;4428858;32;20144;-61
2023/09/28 01:23:37;;;;;;;1.60;1.00;;;16.70;99.90;;;;;;4425961;32;20230;-62
2023/09/28 01:26:02;;;;;;;1.98;1.48;;;16.70;99.90;;;;;;4427821;32;20069;-60
2023/09/28 01:28:28;;;;;;;2.55;0.60;;;16.70;99.90;;;;;;4430740;32;20741;-60
2023/09/28 01:30:53;;;;;;;14.60;2.50;;;16.60;99.90;;;;;;4430667;32;20096;-60
2023/09/28 01:33:19;;;;;;;1.90;0.80;;;16.60;99.90;;;;;;4429218;32;20104;-61
2023/09/28 01:35:45;;;;;;;2.53;1.12;;;16.50;99.90;;;;;;4431485;32;20440;-59
2023/09/28 01:38:31;;;;;;;1.37;0.75;;;16.50;99.90;;;;;;4431937;32;20084;-60
2023/09/28 01:40:57;;;;;;;1.12;0.93;;;16.50;99.90;;;;;;4433145;32;20078;-61
2023/09/28 01:43:23;;;;;;;1.25;0.60;;;16.40;99.90;;;;;;4432015;32;20093;-57
2023/09/28 01:45:49;;;;;;;0.50;0.50;;;16.30;99.90;;;;;;4430781;32;20106;-60
2023/09/28 01:48:15;;;;;;;1.25;0.95;;;16.30;99.90;;;;;;4432157;32;20371;-61
2023/09/28 01:50:40;;;;;;;1.98;1.08;;;16.40;99.90;;;;;;4434017;32;20512;-60
2023/09/28 01:53:06;;;;;;;0.95;0.65;;;16.30;99.90;;;;;;4433693;32;20549;-60
2023/09/28 01:55:32;;;;;;;2.05;1.33;;;16.40;99.90;;;;;;4432414;32;20084;-62
2023/09/28 01:57:58;;;;;;;1.83;1.00;;;16.40;99.90;;;;;;4431251;32;20088;-62
2023/09/28 02:00:25;;;;;;;0.50;0.47;;;16.40;99.90;;;;;;4433684;32;20089;-63
2023/09/28 02:02:53;;;;;;;4.93;0.98;;;16.40;99.90;;;;;;4432760;32;20113;-61
2023/09/28 02:05:21;;;;;;;0.70;0.70;;;16.30;99.90;;;;;;4432148;32;20060;-60
2023/09/28 02:07:48;;;;;;;3.40;1.23;;;16.30;99.90;;;;;;4432847;32;20093;-59
2023/09/28 02:10:14;;;;;;;1.55;0.60;;;16.20;99.90;;;;;;4435234;32;20493;-59
2023/09/28 02:12:41;;;;;;;2.28;1.00;;;16.20;99.90;;;;;;4420089;32;20105;-60
2023/09/28 02:15:09;;;;;;;3.10;1.58;;;16.20;99.90;;;;;;4436919;32;20056;-60
2023/09/28 02:17:37;;;;;;;0.45;0.45;;;16.10;99.90;;;;;;4419643;32;20400;-59
2023/09/28 02:20:14;;;;;;;6.40;0.77;;;15.90;99.90;;;;;;4428111;32;21268;-59
2023/09/28 02:22:43;;;;;;;1.52;0.95;;;16.00;99.90;;;;;;4430227;32;20085;-57
2023/09/28 02:25:14;;;;;;;3.10;1.00;;;16.00;99.90;;;;;;4432651;32;20077;-60
2023/09/28 02:27:40;;;;;;;0.68;0.68;;;15.90;99.90;;;;;;4425064;32;20096;-60
2023/09/28 02:30:08;;;;;;;0.93;0.90;;;15.80;99.90;;;;;;4430954;32;20092;-60
2023/09/28 02:32:33;;;;;;;0.65;0.65;;;15.70;99.90;;;;;;4431361;32;20577;-60
2023/09/28 02:34:59;;;;;;;3.87;1.00;;;15.80;99.90;;;;;;4419162;32;20065;-60
2023/09/28 02:37:24;;;;;;;0.40;0.40;;;15.80;99.90;;;;;;4429767;32;21373;-60
2023/09/28 02:39:50;;;;;;;0.98;0.73;;;15.80;99.90;;;;;;4433275;32;20053;-60
2023/09/28 02:42:16;;;;;;;1.02;0.80;;;15.70;99.90;;;;;;4431471;32;20089;-59
2023/09/28 02:44:41;;;;;;;0.95;0.95;;;15.70;99.90;;;;;;4434386;32;20096;-61
2023/09/28 02:47:09;;;;;;;1.92;1.05;;;15.70;99.90;;;;;;4433833;32;20097;-58
2023/09/28 02:49:34;;;;;;;0.55;0.52;;;15.80;99.90;;;;;;4431965;32;20077;-60
2023/09/28 02:52:01;;;;;;;0.70;0.70;;;15.80;99.90;;;;;;4435592;32;20080;-61
2023/09/28 02:54:29;;;;;;;0.50;0.50;;;15.90;99.90;;;;;;4432555;32;20576;-59
2023/09/28 02:56:55;;;;;;;5.37;1.52;;;15.90;99.90;;;;;;4433356;32;20116;-61
2023/09/28 02:59:22;;;;;;;0.60;0.60;;;15.90;99.90;;;;;;4432936;32;20252;-60
2023/09/28 03:01:49;;;;;;;1.52;0.90;;;15.90;99.90;;;;;;4432929;32;20061;-61
2023/09/28 03:04:16;;;;;;;1.98;0.88;;;15.90;99.90;;;;;;4432526;32;20532;-59
2023/09/28 03:06:41;;;;;;;3.95;1.92;;;16.00;99.90;;;;;;4429615;32;20436;-61
2023/09/28 03:09:09;;;;;;;0.50;0.50;;;16.00;99.90;;;;;;4436423;32;21472;-61
2023/09/28 03:11:34;;;;;;;1.02;0.90;;;16.00;99.90;;;;;;4431935;32;20152;-60
2023/09/28 03:14:01;;;;;;;1.50;0.88;;;16.00;99.90;;;;;;4433374;32;20134;-60
2023/09/28 03:16:26;;;;;;;1.10;0.93;;;15.80;99.90;;;;;;4434715;32;20060;-60
2023/09/28 03:18:53;;;;;;;0.88;0.75;;;15.60;99.90;;;;;;4433908;32;20123;-60
2023/09/28 03:21:18;;;;;;;0.57;0.57;;;15.60;99.90;;;;;;4432949;32;21402;-60
2023/09/28 03:23:43;;;;;;;1.27;0.60;;;15.50;99.90;;;;;;4434103;32;20089;-59
2023/09/28 03:26:09;;;;;;;3.75;1.27;;;15.50;99.90;;;;;;4434033;32;20092;-63
2023/09/28 03:28:36;;;;;;;2.58;1.27;;;15.50;99.90;;;;;;4431111;32;20077;-62
2023/09/28 03:31:01;;;;;;;2.37;0.88;;;15.50;99.90;;;;;;4434469;32;20064;-62
2023/09/28 03:33:26;;;;;;;0.82;0.82;;;15.60;99.90;;;;;;4431791;32;21135;-62
2023/09/28 03:35:52;;;;;;;2.22;0.90;;;15.70;99.90;;;;;;4430727;32;20080;-60
2023/09/28 03:38:17;;;;;;;1.12;0.80;;;15.80;99.90;;;;;;4433348;32;20532;-62
2023/09/28 03:40:43;;;;;;;0.93;0.77;;;15.70;99.90;;;;;;4434748;32;20085;-62
2023/09/28 03:43:09;;;;;;;0.40;0.40;;;15.50;99.90;;;;;;4432855;32;20140;-63
2023/09/28 03:45:34;;;;;;;4.45;1.73;;;15.50;99.90;;;;;;4432959;32;20512;-62
2023/09/28 03:48:00;;;;;;;0.82;0.55;;;15.50;99.90;;;;;;4432380;32;20094;-62
2023/09/28 03:50:26;;;;;;;1.52;1.00;;;15.50;99.90;;;;;;4434503;32;20563;-62
2023/09/28 03:52:52;;;;;;;13.18;2.78;;;15.50;99.90;;;;;;4433675;32;20190;-61
2023/09/28 03:55:19;;;;;;;4.72;1.90;;;15.40;99.90;;;;;;4433736;32;20132;-61
2023/09/28 03:57:45;;;;;;;3.60;1.77;;;15.30;99.90;;;;;;4432803;32;20856;-62
2023/09/28 04:00:13;;;;;;;2.80;1.73;;;15.30;99.90;;;;;;4432102;32;20089;-61
2023/09/28 04:02:39;;;;;;;1.95;0.85;;;15.30;99.90;;;;;;4430980;32;20533;-63
2023/09/28 04:05:05;;;;;;;2.30;0.82;;;15.50;99.90;;;;;;4430402;32;20097;-61
2023/09/28 04:07:31;;;;;;;0.60;0.60;;;15.50;99.90;;;;;;4433507;32;20077;-61
2023/09/28 04:09:56;;;;;;;1.00;0.95;;;15.50;99.90;;;;;;4434016;32;20151;-62
2023/09/28 04:12:22;;;;;;;3.72;1.08;;;15.50;99.90;;;;;;4432489;32;20053;-62
2023/09/28 04:14:47;;;;;;;0.93;0.85;;;15.50;99.90;;;;;;4432472;32;20092;-62
2023/09/28 04:17:13;;;;;;;3.97;1.42;;;15.50;99.90;;;;;;4433216;32;20081;-61
2023/09/28 04:19:38;;;;;;;1.30;0.62;;;15.40;99.90;;;;;;4431845;32;20691;-62
2023/09/28 04:22:04;;;;;;;0.77;0.77;;;15.20;99.90;;;;;;4426117;32;20187;-62
2023/09/28 04:24:30;;;;;;;0.40;0.40;;;15.10;99.90;;;;;;4431200;32;20097;-62
2023/09/28 04:26:58;;;;;;;1.98;1.45;;;15.00;99.90;;;;;;4433883;32;20124;-62
2023/09/28 04:29:24;;;;;;;5.93;2.45;;;14.90;99.90;;;;;;4430650;32;20114;-63
2023/09/28 04:31:50;;;;;;;3.83;1.70;;;14.90;99.90;;;;;;4433702;32;20598;-59
2023/09/28 04:34:16;;;;;;;0.90;0.90;;;15.00;99.90;;;;;;4429991;32;20069;-62
2023/09/28 04:36:43;;;;;;;8.52;1.17;;;15.00;99.90;;;;;;4432157;32;20088;-62
2023/09/28 04:39:10;;;;;;;1.50;0.77;;;15.10;99.90;;;;;;4432016;32;20180;-61
2023/09/28 04:41:36;;;;;;;4.57;2.03;;;15.10;99.90;;;;;;4433681;32;20085;-62
2023/09/28 04:44:02;;;;;;;1.12;0.73;;;15.20;99.90;;;;;;4429200;32;20100;-62
2023/09/28 04:46:27;;;;;;;2.28;1.05;;;15.20;99.90;;;;;;4429874;32;20579;-60
2023/09/28 04:48:54;;;;;;;3.90;1.27;;;15.30;99.90;;;;;;4428271;32;20100;-62
2023/09/28 04:51:19;;;;;;;2.50;1.37;;;15.20;99.90;;;;;;4417167;32;20478;-61
2023/09/28 04:53:45;;;;;;;5.37;1.77;;;15.10;99.90;;;;;;4419754;32;20140;-64
2023/09/28 04:56:12;;;;;;;4.37;1.85;;;15.10;99.90;;;;;;4412934;32;20268;-62
2023/09/28 04:58:38;;;;;;;0.90;0.82;;;15.20;99.90;;;;;;4419293;32;20566;-62
2023/09/28 05:01:04;;;;;;;0.50;0.50;;;15.00;99.90;;;;;;4414307;32;20123;-61
2023/09/28 05:03:30;;;;;;;1.05;0.95;;;15.10;99.90;;;;;;4418445;32;20085;-61
2023/09/28 05:05:57;;;;;;;0.60;0.60;;;15.10;99.90;;;;;;4422817;32;20098;-62
2023/09/28 05:08:23;;;;;;;0.60;0.60;;;15.10;99.90;;;;;;4416774;32;20132;-62
2023/09/28 05:10:49;;;;;;;20.20;1.00;;;15.00;99.90;;;;;;4417886;32;20055;-61
2023/09/28 05:13:14;;;;;;;1.75;1.12;;;15.00;99.90;;;;;;4418360;32;20390;-62
2023/09/28 05:15:40;;;;;;;1.12;0.80;;;15.00;99.90;;;;;;4420401;32;20089;-62
2023/09/28 05:18:05;;;;;;;2.10;1.00;;;15.00;99.90;;;;;;4399466;32;21329;-59
2023/09/28 05:20:31;;;;;;;0.88;0.65;;;15.00;99.90;;;;;;4419638;32;20623;-62
2023/09/28 05:22:57;;;;;;;0.68;0.68;;;15.10;99.90;;;;;;4412922;32;20101;-61
2023/09/28 05:25:24;;;;;;;1.10;1.00;;;15.00;99.90;;;;;;4413057;32;20218;-60
2023/09/28 05:27:49;;;;;;;2.67;0.93;;;15.00;99.90;;;;;;4401667;32;20167;-62
2023/09/28 05:30:15;;;;;;;1.10;0.50;;;15.00;99.90;;;;;;4407421;32;20528;-58
2023/09/28 05:32:41;;;;;;;2.22;1.15;;;15.00;99.90;;;;;;4396592;32;20165;-62
2023/09/28 05:35:07;;;;;;;13.15;1.20;;;15.00;99.90;;;;;;4399300;32;20089;-60
2023/09/28 05:37:32;;;;;;;0.52;0.47;;;15.10;99.90;;;;;;4400602;32;20791;-57
2023/09/28 05:40:06;;;;;;;2.30;0.90;;;15.10;99.90;;;;;;4388522;32;20098;-61
2023/09/28 05:42:34;;;;;;;1.77;1.20;;;15.00;99.90;;;;;;4394760;32;20101;-61
2023/09/28 05:45:00;;;;;;;2.75;1.77;;;15.00;99.90;;;;;;4364482;32;20151;-60
2023/09/28 05:47:26;;;;;;;1.12;0.80;;;15.00;99.90;;;;;;4369118;32;25937;-57
2023/09/28 05:49:52;;;;;;;3.08;1.98;;;15.00;99.90;;;;;;4396550;32;20177;-60
2023/09/28 05:52:18;;;;;;;1.23;0.85;;;15.10;99.90;;;;;;4393455;32;20869;-60
2023/09/28 05:54:45;;;;;;;0.70;0.45;;;15.10;99.90;;;;;;4391471;32;20682;-61
2023/09/28 05:57:12;;;;;;;0.70;0.70;;;15.10;99.90;;;;;;4398530;32;21622;-62
2023/09/28 05:59:37;;;;;;;2.85;0.80;;;15.20;99.90;;;;;;4368505;32;20772;-61
2023/09/28 06:02:03;;;;;;;6.95;1.58;;;15.20;99.90;;;;;;4356568;32;20092;-60
2023/09/28 06:04:28;;;;;;;3.35;1.37;;;15.40;99.90;;;;;;4387845;32;20845;-62
2023/09/28 06:06:53;;;;;;;2.05;0.70;;;15.40;99.90;;;;;;4396780;32;20093;-62
2023/09/28 06:09:19;;;;;;;3.60;1.27;;;15.40;99.90;;;;;;4388841;32;21007;-62
2023/09/28 06:11:46;;;;;;;0.52;0.50;;;15.50;99.90;;;;;;4386145;32;20192;-59
2023/09/28 06:14:15;;;;;;;0.50;0.50;;;15.50;99.90;;;;;;4396196;32;20198;-62
2023/09/28 06:16:42;;;;;;;0.57;0.57;;;15.60;99.90;;;;;;4371473;32;20979;-58
2023/09/28 06:19:08;;;;;;;0.82;0.82;;;15.60;99.90;;;;;;4381758;32;20093;-59
2023/09/28 06:21:33;;;;;;;1.17;0.82;;;15.70;99.90;;;;;;4369302;32;21027;-60
2023/09/28 06:23:59;;;;;;;1.87;0.90;;;15.70;99.90;;;;;;4381281;32;20683;-60
2023/09/28 06:26:24;;;;;;;0.65;0.65;;;15.80;99.90;;;;;;4378863;32;20105;-60
2023/09/28 06:28:50;;;;;;;2.90;1.20;;;15.90;99.90;;;;;;4374864;32;20524;-59
2023/09/28 06:31:18;;;;;;;1.80;1.35;;;16.00;99.90;;;;;;4394439;32;20652;-60
2023/09/28 06:33:45;;;;;;;8.30;2.03;;;16.00;99.90;;;;;;4365042;32;20085;-59
2023/09/28 06:36:10;;;;;;;0.55;0.55;;;16.10;99.90;;;;;;4394243;32;20116;-62
2023/09/28 06:38:36;;;;;;;1.65;1.02;;;16.10;99.90;;;;;;4400267;32;20277;-60
2023/09/28 06:41:02;;;;;;;0.80;0.80;;;16.20;99.90;;;;;;4399376;32;21870;-63
2023/09/28 06:43:28;;;;;;;1.58;0.93;;;16.30;99.90;;;;;;4367803;32;20100;-62
2023/09/28 06:45:56;;;;;;;1.12;0.98;;;16.30;99.90;;;;;;4377898;32;20089;-62
2023/09/28 06:48:22;;;;;;;0.60;0.60;;;16.40;99.90;;;;;;4361813;32;20109;-62
2023/09/28 06:50:49;;;;;;;0.70;0.70;;;16.50;99.90;;;;;;4384494;32;20081;-62
2023/09/28 06:53:16;;;;;;;1.42;0.80;;;16.50;99.90;;;;;;4367316;32;20097;-61
2023/09/28 06:55:43;;;;;;;0.98;0.90;;;16.50;99.90;;;;;;4378724;32;20173;-61
2023/09/28 06:58:09;;;;;;;5.53;1.87;;;16.50;99.90;;;;;;4370158;32;20120;-63
2023/09/28 07:00:36;;;;;;;17.33;1.48;;;16.60;99.90;;;;;;4381933;32;20081;-62
2023/09/28 07:03:02;;;;;;;3.90;0.68;;;16.70;99.90;;;;;;4370877;32;20073;-61
2023/09/28 07:05:28;;;;;;;1.67;0.65;;;16.70;99.90;;;;;;4376807;32;20137;-62
2023/09/28 07:07:53;;;;;;;0.73;0.73;;;16.80;99.90;;;;;;4390568;32;20077;-63
2023/09/28 07:10:19;;;;;;;1.67;1.25;;;16.90;99.90;;;;;;4389697;32;20092;-63
2023/09/28 07:12:46;;;;;;;1.65;1.15;;;17.00;99.90;;;;;;4379517;32;20794;-62
2023/09/28 07:15:11;;;;;;;0.80;0.77;;;17.10;99.90;;;;;;4388751;32;20084;-63
2023/09/28 07:17:37;;;;;;;1.52;0.88;;;17.10;99.90;;;;;;4404464;32;22022;-63
2023/09/28 07:20:03;;;;;;;1.62;1.05;;;17.10;99.90;;;;;;4384549;32;20498;-64
2023/09/28 07:22:29;;;;;;;0.65;0.65;;;17.20;99.90;;;;;;4377930;32;20560;-61
2023/09/28 07:24:55;;;;;;;1.83;1.20;;;17.30;99.90;;;;;;4397891;32;21073;-62
2023/09/28 07:27:21;;;;;;;0.80;0.80;;;17.40;99.90;;;;;;4394460;32;20272;-64
2023/09/28 07:29:48;;;;;;;0.98;0.60;;;17.40;99.90;;;;;;4382461;32;20601;-63
2023/09/28 07:32:14;;;;;;;5.87;2.75;;;17.60;99.90;;;;;;4369925;32;20791;-62
2023/09/28 07:34:41;;;;;;;8.23;2.17;;;17.60;99.90;;;;;;4396066;32;20222;-63
2023/09/28 07:37:07;;;;;;;5.53;1.23;;;17.70;99.90;;;;;;4400671;32;20105;-63
2023/09/28 07:39:32;;;;;;;4.82;2.15;;;17.70;99.90;;;;;;4407822;32;20085;-63
2023/09/28 07:41:59;;;;;;;0.80;0.80;;;17.80;99.90;;;;;;4411254;32;20072;-63
2023/09/28 07:44:24;;;;;;;0.70;0.70;;;17.90;99.90;;;;;;4415295;32;20396;-62
2023/09/28 07:46:50;;;;;;;3.20;0.98;;;18.00;99.90;;;;;;4406697;32;20447;-63
2023/09/28 07:49:15;;;;;;;2.40;1.50;;;18.10;99.90;;;;;;4399046;32;21460;-63
2023/09/28 07:51:41;;;;;;;0.70;0.70;;;18.30;99.90;;;;;;4384606;32;20185;-63
2023/09/28 07:54:06;;;;;;;1.10;0.93;;;18.30;99.90;;;;;;4380551;32;21330;-61
2023/09/28 07:56:33;;;;;;;1.50;0.60;;;18.40;99.90;;;;;;4385114;32;20768;-62
2023/09/28 07:58:59;;;;;;;0.95;0.62;;;18.40;99.90;;;;;;4391841;32;20189;-62
2023/09/28 08:01:26;;;;;;;3.45;1.50;;;18.50;99.90;;;;;;4389035;32;20109;-62
2023/09/28 08:03:52;;;;;;;3.62;1.33;;;18.50;99.90;;;;;;4372622;32;20137;-63
2023/09/28 08:06:17;;;;;;;2.72;0.90;;;18.60;99.90;;;;;;4394759;32;20085;-62
2023/09/28 08:08:43;;;;;;;0.68;0.68;;;18.70;99.90;;;;;;4400931;32;20106;-63
2023/09/28 08:11:08;;;;;;;3.60;1.50;;;18.80;99.90;;;;;;4393074;32;20080;-63
2023/09/28 08:13:34;;;;;;;1.42;0.75;;;19.00;99.90;;;;;;4400986;32;22447;-63
2023/09/28 08:15:59;;;;;;;0.85;0.85;;;19.10;99.90;;;;;;4370852;32;20131;-61
2023/09/28 08:18:26;;;;;;;0.65;0.65;;;19.20;99.90;;;;;;4396140;32;20089;-62
2023/09/28 08:20:51;;;;;;;4.50;1.62;;;19.30;99.90;;;;;;4405181;32;20155;-62
2023/09/28 08:23:18;;;;;;;0.77;0.62;;;19.40;99.90;;;;;;4394580;32;20902;-62
2023/09/28 08:25:43;;;;;;;0.40;0.40;;;19.50;99.90;;;;;;4400079;32;20106;-62
2023/09/28 08:28:09;;;;;;;0.70;0.70;;;19.60;99.90;;;;;;4382913;32;20350;-62
2023/09/28 08:30:35;;;;;;;1.15;0.68;;;19.70;99.90;;;;;;4393030;32;21315;-62
2023/09/28 08:33:00;;;;;;;1.17;1.00;;;19.80;99.90;;;;;;4388804;32;20146;-63
2023/09/28 08:35:26;;;;;;;0.68;0.68;;;20.00;99.90;;;;;;4384659;32;21152;-63
2023/09/28 08:37:52;;;;;;;2.92;0.93;;;20.00;99.90;;;;;;4388704;32;20085;-62
2023/09/28 08:40:18;;;;;;;1.83;0.70;;;20.10;99.90;;;;;;4398721;32;21681;-63
2023/09/28 08:42:44;;;;;;;1.35;0.98;;;20.20;99.90;;;;;;4372225;32;20093;-64
2023/09/28 08:45:12;;;;;;;0.85;0.82;;;20.30;99.90;;;;;;4405915;32;20077;-64
2023/09/28 08:47:46;;;;;;;2.15;1.17;;;20.30;99.90;;;;;;4388236;32;20097;-64
2023/09/28 08:50:15;;;;;;;0.50;0.50;;;20.30;99.90;;;;;;4372535;32;20817;-64
2023/09/28 08:52:40;;;;;;;7.68;2.03;;;20.50;99.90;;;;;;4395107;32;21247;-64
2023/09/28 08:55:07;;;;;;;0.70;0.70;;;20.60;99.90;;;;;;4399888;32;20429;-63
2023/09/28 08:57:35;;;;;;;1.58;1.00;;;20.80;99.90;;;;;;4397739;32;20738;-63
2023/09/28 09:00:01;;;;;;;0.52;0.52;;;20.80;99.90;;;;;;4393177;32;20117;-64
2023/09/28 09:02:28;;;;;;;4.55;0.90;;;20.90;99.90;;;;;;4392125;32;20105;-64
2023/09/28 09:04:53;;;;;;;0.50;0.50;;;20.90;99.90;;;;;;4398582;32;20093;-64
2023/09/28 09:07:21;;;;;;;1.95;1.48;;;21.00;99.90;;;;;;4403853;32;22123;-63
2023/09/28 09:09:48;;;;;;;0.55;0.50;;;21.10;99.90;;;;;;4392209;32;20116;-63
2023/09/28 09:12:15;;;;;;;5.53;2.45;;;21.20;99.90;;;;;;4381072;32;20088;-62
2023/09/28 09:14:40;;;;;;;0.77;0.65;;;21.30;99.90;;;;;;4383263;32;20077;-63
2023/09/28 09:17:06;;;;;;;1.15;0.82;;;21.40;99.90;;;;;;4391432;32;21270;-64
2023/09/28 09:19:32;;;;;;;3.35;1.62;;;21.50;99.90;;;;;;4398054;32;20065;-64
2023/09/28 09:21:58;;;;;;;4.80;1.37;;;21.60;99.90;;;;;;4382636;32;20121;-64
2023/09/28 09:24:24;;;;;;;0.55;0.55;;;21.80;99.90;;;;;;4383249;32;20210;-64
2023/09/28 09:26:53;;;;;;;0.40;0.40;;;21.90;99.90;;;;;;4377351;32;20554;-63
2023/09/28 09:29:19;;;;;;;1.15;0.88;;;21.90;99.90;;;;;;4372118;32;20579;-61
2023/09/28 09:31:47;;;;;;;1.70;0.70;;;22.10;99.90;;;;;;4376191;32;20096;-64
2023/09/28 09:34:20;;;;;;;0.75;0.75;;;22.20;99.90;;;;;;4387132;32;20098;-64
2023/09/28 09:37:01;;;;;;;0.40;0.40;;;22.30;99.90;;;;;;4370614;32;20117;-63
2023/09/28 09:39:30;;;;;;;1.85;1.27;;;22.40;99.90;;;;;;4392848;32;20160;-65
2023/09/28 09:41:58;;;;;;;0.77;0.77;;;22.40;99.90;;;;;;4406783;32;20101;-64
2023/09/28 09:44:24;;;;;;;0.98;0.52;;;22.50;99.90;;;;;;4371123;32;21815;-64
2023/09/28 09:46:53;;;;;;;0.35;0.35;;;22.50;99.90;;;;;;4391022;32;20101;-64
2023/09/28 09:49:21;;;;;;;4.05;2.10;;;22.60;99.90;;;;;;4374652;32;20143;-63
2023/09/28 09:51:48;;;;;;;1.17;0.43;;;22.70;99.90;;;;;;4385311;32;21011;-63
2023/09/28 09:54:16;;;;;;;0.47;0.40;;;22.80;99.90;;;;;;4377323;32;20145;-64
2023/09/28 09:56:44;;;;;;;0.95;0.57;;;22.80;99.90;;;;;;4377882;32;21491;-64
2023/09/28 09:59:16;;;;;;;0.30;0.30;;;22.90;99.90;;;;;;4387799;32;20191;-63
2023/09/28 10:04:12;;;;;;;0.40;0.40;;;22.90;99.90;;;;;;4371236;32;20093;-63
2023/09/28 10:06:38;;;;;;;1.55;1.00;;;23.10;99.90;;;;;;4382844;32;20227;-62
2023/09/28 10:09:04;;;;;;;0.55;0.55;;;23.10;99.90;;;;;;4382722;32;20658;-63
2023/09/28 10:11:31;;;;;;;0.30;0.30;;;23.20;99.90;;;;;;4359708;32;20098;-63
2023/09/28 10:13:58;;;;;;;0.30;0.30;;;23.20;99.90;;;;;;4385223;32;20121;-63
2023/09/28 10:16:25;;;;;;;2.92;1.12;;;23.40;99.90;;;;;;4367777;32;20583;-64
2023/09/28 10:18:52;;;;;;;0.28;0.28;;;23.50;99.90;;;;;;4363790;32;20093;-63
2023/09/28 10:21:19;;;;;;;5.53;0.80;;;23.60;99.90;;;;;;4378150;32;20117;-64
2023/09/28 10:23:47;;;;;;;0.93;0.70;;;23.60;99.90;;;;;;4381801;32;21760;-63
2023/09/28 10:26:15;;;;;;;5.75;0.65;;;23.60;99.90;;;;;;4379294;32;20118;-63
2023/09/28 10:29:03;;;;;;;0.43;0.37;;;23.60;99.90;;;;;;4400308;32;20288;-63
2023/09/28 10:31:31;;;;;;;0.52;0.40;;;23.70;99.90;;;;;;4381245;32;21209;-64
2023/09/28 10:33:59;;;;;;;0.45;0.40;;;23.70;99.90;;;;;;4398964;32;20404;-64
2023/09/28 10:36:26;;;;;;;0.45;0.40;;;23.90;99.90;;;;;;4413536;32;20611;-65
2023/09/28 10:39:14;;;;;;;2.40;1.00;;;24.10;99.90;;;;;;4406449;32;20557;-64
2023/09/28 10:42:00;;;;;;;0.55;0.52;;;24.10;99.90;;;;;;4407678;32;20159;-64
2023/09/28 10:44:26;;;;;;;0.62;0.57;;;24.10;99.90;;;;;;4396532;32;20107;-65
2023/09/28 10:46:51;;;;;;;0.45;0.45;;;24.10;99.90;;;;;;4418869;32;21257;-65
2023/09/28 10:49:26;;;;;;;1.65;0.80;;;24.20;99.90;;;;;;4413853;32;20710;-64
2023/09/28 10:51:52;;;;;;;0.22;0.22;;;24.40;99.90;;;;;;4412719;32;20061;-64
2023/09/28 10:54:18;;;;;;;0.40;0.30;;;24.50;99.90;;;;;;4391025;32;20581;-63
2023/09/28 10:56:48;;;;;;;0.30;0.30;;;24.60;99.90;;;;;;4386556;32;20579;-64
2023/09/28 10:59:14;;;;;;;0.60;0.55;;;24.60;99.90;;;;;;4380889;32;20098;-65
2023/09/28 11:01:40;;;;;;;0.88;0.60;;;24.70;99.90;;;;;;4396641;32;20089;-64
2023/09/28 11:04:06;;;;;;;1.40;0.88;;;24.70;99.90;;;;;;4404214;32;20101;-65
2023/09/28 11:06:33;;;;;;;0.22;0.22;;;24.70;99.90;;;;;;4398742;32;20065;-65
2023/09/28 11:09:01;;;;;;;0.60;0.60;;;24.80;99.90;;;;;;4404981;32;20081;-65
2023/09/28 11:11:27;;;;;;;1.35;0.75;;;24.80;99.90;;;;;;4398728;32;21228;-64
2023/09/28 11:13:56;;;;;;;0.85;0.45;;;25.00;99.90;;;;;;4389779;32;20151;-66
2023/09/28 11:16:22;;;;;;;0.30;0.30;;;25.20;99.90;;;;;;4384027;32;21644;-65
2023/09/28 11:18:49;;;;;;;0.22;0.22;;;25.50;99.90;;;;;;4388503;32;20793;-64
2023/09/28 11:21:15;;;;;;;0.10;0.10;;;25.80;99.90;;;;;;4392871;32;20074;-65
2023/09/28 11:23:41;;;;;;;0.60;0.40;;;26.20;99.90;;;;;;4392951;32;20576;-65
2023/09/28 11:26:09;;;;;;;3.70;0.52;;;26.50;99.90;;;;;;4393755;32;20101;-66
2023/09/28 11:28:36;;;;;;;0.10;0.10;;;26.80;99.90;;;;;;4391127;32;20636;-66
2023/09/28 11:31:07;;;;;;;1.17;0.62;;;27.10;99.90;;;;;;4403588;32;20603;-64
2023/09/28 11:33:34;;;;;;;0.30;0.28;;;27.40;99.90;;;;;;4398601;32;20148;-66
2023/09/28 11:36:00;;;;;;;0.25;0.20;;;27.60;99.90;;;;;;4400023;32;20086;-65
2023/09/28 11:38:25;;;;;;;1.55;1.08;;;27.90;99.90;;;;;;4394021;32;20303;-65
2023/09/28 11:40:54;;;;;;;0.30;0.30;;;28.10;99.90;;;;;;4403130;32;20172;-65
2023/09/28 11:43:19;;;;;;;0.82;0.62;;;28.40;99.90;;;;;;4394030;32;20342;-65
2023/09/28 11:45:48;;;;;;;0.37;0.37;;;28.70;99.90;;;;;;4404875;32;21212;-64
2023/09/28 11:48:19;;;;;;;0.62;0.47;;;28.90;99.90;;;;;;4401168;32;85667;-65
2023/09/28 11:50:45;;;;;;;1.08;0.30;;;29.30;99.60;;;;;;4398053;32;20777;-65
2023/09/28 11:53:11;;;;;;;1.05;0.68;;;29.70;98.40;;;;;;4417441;32;20402;-64
2023/09/28 11:55:38;;;;;;;0.73;0.52;;;30.10;97.20;;;;;;4407860;32;20524;-65
2023/09/28 11:58:06;;;;;;;1.05;0.50;;;29.90;97.30;;;;;;4417680;32;20113;-63
2023/09/28 12:00:32;;;;;;;0.30;0.22;;;29.60;96.00;;;;;;4398091;32;20119;-64
2023/09/28 12:02:57;;;;;;;0.73;0.47;;;29.30;96.10;;;;;;4408080;32;20085;-64
2023/09/28 12:05:24;;;;;;;1.87;0.40;;;29.00;96.40;;;;;;4408361;32;20130;-65
2023/09/28 12:07:49;;;;;;;4.07;1.52;;;28.60;97.10;;;;;;4417552;32;20297;-63
2023/09/28 12:10:15;;;;;;;0.75;0.28;;;28.40;97.50;;;;;;4411658;32;20077;-65
2023/09/28 12:12:41;;;;;;;0.70;0.52;;;28.40;97.90;;;;;;4410874;32;20084;-64
2023/09/28 12:15:11;;;;;;;2.62;0.43;;;28.20;98.20;;;;;;4417423;32;20093;-64
2023/09/28 12:17:38;;;;;;;0.62;0.45;;;28.10;98.30;;;;;;4407920;32;20671;-64
2023/09/28 12:20:07;;;;;;;0.13;0.13;;;27.90;98.70;;;;;;4413058;32;20073;-65
2023/09/28 12:22:33;;;;;;;0.10;0.10;;;27.80;98.70;;;;;;4396985;32;20570;-64
2023/09/28 12:24:59;;;;;;;0.45;0.45;;;27.70;99.10;;;;;;4414436;32;20065;-64
2023/09/28 12:27:25;;;;;;;3.03;0.62;;;28.30;98.70;;;;;;4422250;32;20461;-64
2023/09/28 12:29:50;;;;;;;1.48;0.95;;;29.10;98.30;;;;;;4419822;32;20805;-64
2023/09/28 12:32:16;;;;;;;0.40;0.40;;;30.10;97.20;;;;;;4405285;32;20568;-64
2023/09/28 12:34:41;;;;;;;0.45;0.45;;;30.10;96.70;;;;;;4416764;32;20088;-64
2023/09/28 12:37:09;;;;;;;0.88;0.35;;;30.10;96.20;;;;;;4419297;32;20543;-64
2023/09/28 12:39:35;;;;;;;0.10;0.10;;;29.60;96.60;;;;;;4419994;32;20142;-64
2023/09/28 12:42:01;;;;;;;0.52;0.50;;;29.30;96.90;;;;;;4422732;32;20085;-63
2023/09/28 12:44:28;;;;;;;3.17;1.08;;;29.00;96.70;;;;;;4419639;32;20290;-64